createdAt,value
2019-04-30T00:00:46.756Z,1017.07
2019-04-30T00:01:48.677Z,1017.05
2019-04-30T00:02:46.761Z,1017.07
2019-04-30T00:03:50.517Z,1017.06
2019-04-30T00:04:46.781Z,1017.02
2019-04-30T00:05:49.410Z,1017.01
2019-04-30T00:06:46.798Z,1017.02
2019-04-30T00:07:50.810Z,1017.00
2019-04-30T00:08:46.810Z,1017.05
2019-04-30T00:09:49.324Z,1017.03
2019-04-30T00:10:46.832Z,1016.99
2019-04-30T00:11:50.665Z,1016.95
2019-04-30T00:12:46.844Z,1016.99
2019-04-30T00:13:50.220Z,1016.97
2019-04-30T00:14:46.849Z,1016.96
2019-04-30T00:15:48.037Z,1016.95
2019-04-30T00:16:46.868Z,1016.91
2019-04-30T00:17:52.679Z,1016.92
2019-04-30T00:18:57.059Z,1016.93
2019-04-30T00:19:50.562Z,1016.98
2019-04-30T00:20:47.111Z,1016.95
2019-04-30T00:21:48.289Z,1016.91
2019-04-30T00:22:50.339Z,1016.92
2019-04-30T00:23:46.913Z,1016.93
2019-04-30T00:24:49.896Z,1016.92
2019-04-30T00:25:47.004Z,1016.93
2019-04-30T00:26:52.020Z,1016.95
2019-04-30T00:27:48.100Z,1016.95
2019-04-30T00:28:47.878Z,1016.93
2019-04-30T00:29:46.959Z,1016.92
2019-04-30T00:30:47.842Z,1016.93
2019-04-30T00:31:47.179Z,1016.90
2019-04-30T00:32:47.266Z,1016.90
2019-04-30T00:33:46.984Z,1016.92
2019-04-30T00:34:46.993Z,1016.90
2019-04-30T00:35:49.736Z,1016.88
2019-04-30T00:36:47.010Z,1016.91
2019-04-30T00:37:51.706Z,1016.89
2019-04-30T00:38:47.020Z,1016.89
2019-04-30T00:39:51.042Z,1016.84
2019-04-30T00:40:47.053Z,1016.84
2019-04-30T00:41:47.575Z,1016.83
2019-04-30T00:42:47.055Z,1016.79
2019-04-30T00:43:50.669Z,1016.78
2019-04-30T00:44:47.067Z,1016.81
2019-04-30T00:45:47.618Z,1016.75
2019-04-30T00:46:47.998Z,1016.77
2019-04-30T00:47:47.974Z,1016.79
2019-04-30T00:48:47.083Z,1016.76
2019-04-30T00:49:47.226Z,1016.75
2019-04-30T00:50:47.094Z,1016.77
2019-04-30T00:51:49.830Z,1016.72
2019-04-30T00:52:47.115Z,1016.78
2019-04-30T00:53:51.211Z,1016.77
2019-04-30T00:54:47.121Z,1016.79
2019-04-30T00:55:48.529Z,1016.81
2019-04-30T00:56:47.141Z,1016.80
2019-04-30T00:57:47.504Z,1016.80
2019-04-30T00:58:47.155Z,1016.77
2019-04-30T00:59:48.060Z,1016.76
2019-04-30T01:00:47.200Z,1016.73
2019-04-30T01:01:48.122Z,1016.74
2019-04-30T01:02:47.168Z,1016.75
2019-04-30T01:03:49.557Z,1016.70
2019-04-30T01:04:47.199Z,1016.70
2019-04-30T01:05:47.912Z,1016.67
2019-04-30T01:06:47.207Z,1016.68
2019-04-30T01:07:50.175Z,1016.67
2019-04-30T01:08:47.218Z,1016.70
2019-04-30T01:09:49.885Z,1016.70
2019-04-30T01:10:47.295Z,1016.67
2019-04-30T01:11:48.168Z,1016.69
2019-04-30T01:12:50.131Z,1016.65
2019-04-30T01:13:51.009Z,1016.68
2019-04-30T01:14:47.259Z,1016.68
2019-04-30T01:15:49.019Z,1016.69
2019-04-30T01:16:49.230Z,1016.68
2019-04-30T01:17:50.997Z,1016.67
2019-04-30T01:18:49.060Z,1016.71
2019-04-30T01:19:54.283Z,1016.67
2019-04-30T01:20:48.729Z,1016.71
2019-04-30T01:21:49.136Z,1016.64
2019-04-30T01:22:48.700Z,1016.69
2019-04-30T01:23:51.936Z,1016.65
2019-04-30T01:24:49.514Z,1016.68
2019-04-30T01:25:50.390Z,1016.69
2019-04-30T01:26:48.607Z,1016.68
2019-04-30T01:27:49.010Z,1016.67
2019-04-30T01:28:49.377Z,1016.67
2019-04-30T01:29:48.726Z,1016.67
2019-04-30T01:30:49.424Z,1016.65
2019-04-30T01:31:48.796Z,1016.69
2019-04-30T01:32:52.110Z,1016.64
2019-04-30T01:33:48.905Z,1016.61
2019-04-30T01:34:49.853Z,1016.61
2019-04-30T01:35:48.762Z,1016.60
2019-04-30T01:36:51.032Z,1016.61
2019-04-30T01:37:48.759Z,1016.63
2019-04-30T01:38:51.007Z,1016.60
2019-04-30T01:39:49.169Z,1016.65
2019-04-30T01:40:50.602Z,1016.66
2019-04-30T01:41:48.809Z,1016.64
2019-04-30T01:42:48.525Z,1016.67
2019-04-30T01:43:48.759Z,1016.65
2019-04-30T01:44:50.462Z,1016.72
2019-04-30T01:45:48.645Z,1016.67
2019-04-30T01:46:51.344Z,1016.69
2019-04-30T01:47:49.487Z,1016.69
2019-04-30T01:48:50.826Z,1016.69
2019-04-30T01:49:49.452Z,1016.68
2019-04-30T01:50:48.853Z,1016.65
2019-04-30T01:51:48.641Z,1016.71
2019-04-30T01:52:49.370Z,1016.71
2019-04-30T01:53:48.447Z,1016.68
2019-04-30T01:54:49.062Z,1016.71
2019-04-30T01:55:49.415Z,1016.70
2019-04-30T01:56:47.556Z,1016.70
2019-04-30T01:57:49.144Z,1016.73
2019-04-30T01:58:49.077Z,1016.69
2019-04-30T01:59:48.638Z,1016.71
2019-04-30T02:00:49.323Z,1016.74
2019-04-30T02:01:48.715Z,1016.73
2019-04-30T02:02:49.481Z,1016.72
2019-04-30T02:03:48.692Z,1016.79
2019-04-30T02:04:49.192Z,1016.74
2019-04-30T02:05:47.610Z,1016.74
2019-04-30T02:06:49.329Z,1016.74
2019-04-30T02:07:48.679Z,1016.73
2019-04-30T02:08:49.282Z,1016.74
2019-04-30T02:09:48.905Z,1016.74
2019-04-30T02:10:49.194Z,1016.69
2019-04-30T02:11:48.802Z,1016.67
2019-04-30T02:12:49.325Z,1016.66
2019-04-30T02:13:49.169Z,1016.64
2019-04-30T02:14:49.431Z,1016.63
2019-04-30T02:15:49.254Z,1016.65
2019-04-30T02:16:49.330Z,1016.64
2019-04-30T02:17:50.231Z,1016.61
2019-04-30T02:18:49.495Z,1016.61
2019-04-30T02:19:56.435Z,1016.62
2019-04-30T02:20:49.506Z,1016.58
2019-04-30T02:21:48.717Z,1016.61
2019-04-30T02:22:48.652Z,1016.55
2019-04-30T02:23:49.347Z,1016.59
2019-04-30T02:24:48.595Z,1016.62
2019-04-30T02:25:48.957Z,1016.62
2019-04-30T02:26:48.497Z,1016.61
2019-04-30T02:27:48.914Z,1016.59
2019-04-30T02:28:49.521Z,1016.54
2019-04-30T02:29:49.421Z,1016.56
2019-04-30T02:30:50.391Z,1016.48
2019-04-30T02:31:50.125Z,1016.57
2019-04-30T02:32:49.572Z,1016.55
2019-04-30T02:33:50.103Z,1016.51
2019-04-30T02:34:49.777Z,1016.53
2019-04-30T02:35:49.978Z,1016.47
2019-04-30T02:36:49.943Z,1016.48
2019-04-30T02:37:50.447Z,1016.53
2019-04-30T02:38:49.411Z,1016.49
2019-04-30T02:39:50.211Z,1016.53
2019-04-30T02:40:49.905Z,1016.50
2019-04-30T02:41:50.459Z,1016.51
2019-04-30T02:42:49.738Z,1016.51
2019-04-30T02:43:49.755Z,1016.52
2019-04-30T02:44:50.294Z,1016.48
2019-04-30T02:45:49.762Z,1016.49
2019-04-30T02:46:50.328Z,1016.52
2019-04-30T02:47:49.974Z,1016.47
2019-04-30T02:48:50.331Z,1016.48
2019-04-30T02:49:52.924Z,1016.51
2019-04-30T02:50:49.157Z,1016.51
2019-04-30T02:51:49.987Z,1016.51
2019-04-30T02:52:50.422Z,1016.50
2019-04-30T02:53:50.219Z,1016.54
2019-04-30T02:54:49.989Z,1016.53
2019-04-30T02:55:49.946Z,1016.56
2019-04-30T02:56:50.421Z,1016.54
2019-04-30T02:57:49.927Z,1016.52
2019-04-30T02:58:50.201Z,1016.57
2019-04-30T02:59:49.664Z,1016.54
2019-04-30T03:00:49.575Z,1016.58
2019-04-30T03:01:50.231Z,1016.55
2019-04-30T03:02:50.273Z,1016.56
2019-04-30T03:03:50.079Z,1016.55
2019-04-30T03:04:50.138Z,1016.58
2019-04-30T03:05:49.739Z,1016.54
2019-04-30T03:06:50.232Z,1016.55
2019-04-30T03:07:53.010Z,1016.56
2019-04-30T03:08:50.694Z,1016.54
2019-04-30T03:09:49.937Z,1016.54
2019-04-30T03:10:49.976Z,1016.56
2019-04-30T03:11:49.933Z,1016.54
2019-04-30T03:12:49.959Z,1016.52
2019-04-30T03:13:49.490Z,1016.51
2019-04-30T03:14:50.218Z,1016.50
2019-04-30T03:15:49.365Z,1016.52
2019-04-30T03:16:52.506Z,1016.54
2019-04-30T03:17:50.606Z,1016.53
2019-04-30T03:18:49.935Z,1016.51
2019-04-30T03:19:50.184Z,1016.49
2019-04-30T03:20:49.726Z,1016.51
2019-04-30T03:21:50.228Z,1016.46
2019-04-30T03:22:51.083Z,1016.43
2019-04-30T03:23:50.275Z,1016.39
2019-04-30T03:24:50.164Z,1016.40
2019-04-30T03:25:50.146Z,1016.39
2019-04-30T03:26:49.979Z,1016.40
2019-04-30T03:27:49.842Z,1016.36
2019-04-30T03:28:49.396Z,1016.38
2019-04-30T03:29:50.301Z,1016.32
2019-04-30T03:30:56.152Z,1016.38
2019-04-30T03:31:51.786Z,1016.35
2019-04-30T03:32:56.040Z,1016.37
2019-04-30T03:33:52.459Z,1016.36
2019-04-30T03:34:51.711Z,1016.38
2019-04-30T03:35:53.645Z,1016.39
2019-04-30T03:36:50.407Z,1016.36
2019-04-30T03:37:49.702Z,1016.35
2019-04-30T03:38:50.101Z,1016.36
2019-04-30T03:39:49.284Z,1016.36
2019-04-30T03:40:50.256Z,1016.36
2019-04-30T03:41:50.192Z,1016.34
2019-04-30T03:42:49.438Z,1016.35
2019-04-30T03:43:50.357Z,1016.32
2019-04-30T03:44:49.608Z,1016.33
2019-04-30T03:45:49.947Z,1016.30
2019-04-30T03:46:49.838Z,1016.32
2019-04-30T03:47:50.497Z,1016.30
2019-04-30T03:48:50.395Z,1016.25
2019-04-30T03:49:49.944Z,1016.26
2019-04-30T03:50:53.252Z,1016.27
2019-04-30T03:51:49.886Z,1016.20
2019-04-30T03:52:50.372Z,1016.28
2019-04-30T03:53:50.121Z,1016.23
2019-04-30T03:54:49.422Z,1016.24
2019-04-30T03:55:50.659Z,1016.27
2019-04-30T03:56:50.139Z,1016.29
2019-04-30T03:57:51.686Z,1016.25
2019-04-30T03:58:50.353Z,1016.29
2019-04-30T03:59:49.946Z,1016.28
2019-04-30T04:00:50.253Z,1016.29
2019-04-30T04:01:49.758Z,1016.34
2019-04-30T04:02:50.209Z,1016.34
2019-04-30T04:03:49.886Z,1016.34
2019-04-30T04:04:49.477Z,1016.35
2019-04-30T04:05:49.765Z,1016.37
2019-04-30T04:06:49.268Z,1016.35
2019-04-30T04:07:49.844Z,1016.32
2019-04-30T04:08:49.080Z,1016.37
2019-04-30T04:09:49.890Z,1016.38
2019-04-30T04:10:50.246Z,1016.41
2019-04-30T04:11:50.829Z,1016.43
2019-04-30T04:12:49.852Z,1016.38
2019-04-30T04:13:49.574Z,1016.40
2019-04-30T04:14:50.742Z,1016.44
2019-04-30T04:15:49.975Z,1016.44
2019-04-30T04:16:50.739Z,1016.43
2019-04-30T04:17:50.331Z,1016.44
2019-04-30T04:18:50.160Z,1016.47
2019-04-30T04:19:49.463Z,1016.47
2019-04-30T04:20:52.027Z,1016.52
2019-04-30T04:21:50.981Z,1016.50
2019-04-30T04:22:49.717Z,1016.50
2019-04-30T04:23:49.340Z,1016.52
2019-04-30T04:24:50.352Z,1016.52
2019-04-30T04:25:49.838Z,1016.56
2019-04-30T04:26:50.209Z,1016.52
2019-04-30T04:27:50.953Z,1016.56
2019-04-30T04:28:49.609Z,1016.54
2019-04-30T04:29:50.879Z,1016.54
2019-04-30T04:30:50.531Z,1016.55
2019-04-30T04:31:50.037Z,1016.55
2019-04-30T04:32:50.125Z,1016.54
2019-04-30T04:33:49.628Z,1016.51
2019-04-30T04:34:50.567Z,1016.53
2019-04-30T04:35:49.863Z,1016.61
2019-04-30T04:36:50.466Z,1016.60
2019-04-30T04:37:49.462Z,1016.59
2019-04-30T04:38:50.738Z,1016.60
2019-04-30T04:39:50.216Z,1016.56
2019-04-30T04:40:50.164Z,1016.59
2019-04-30T04:41:50.217Z,1016.60
2019-04-30T04:42:49.266Z,1016.59
2019-04-30T04:43:50.487Z,1016.62
2019-04-30T04:44:50.080Z,1016.61
2019-04-30T04:45:49.732Z,1016.61
2019-04-30T04:46:50.418Z,1016.58
2019-04-30T04:47:50.336Z,1016.69
2019-04-30T04:48:49.449Z,1016.65
2019-04-30T04:49:52.965Z,1016.68
2019-04-30T04:50:50.134Z,1016.68
2019-04-30T04:51:49.288Z,1016.71
2019-04-30T04:52:49.628Z,1016.69
2019-04-30T04:53:50.024Z,1016.71
2019-04-30T04:54:50.598Z,1016.73
2019-04-30T04:55:49.937Z,1016.74
2019-04-30T04:56:52.987Z,1016.71
2019-04-30T04:57:50.010Z,1016.77
2019-04-30T04:58:50.244Z,1016.76
2019-04-30T04:59:49.844Z,1016.77
2019-04-30T05:00:49.437Z,1016.75
2019-04-30T05:01:49.049Z,1016.79
2019-04-30T05:02:49.746Z,1016.80
2019-04-30T05:03:49.093Z,1016.81
2019-04-30T05:04:49.200Z,1016.83
2019-04-30T05:05:49.897Z,1016.83
2019-04-30T05:06:49.866Z,1016.83
2019-04-30T05:07:48.767Z,1016.88
2019-04-30T05:08:49.331Z,1016.88
2019-04-30T05:09:49.028Z,1016.92
2019-04-30T05:10:49.485Z,1016.94
2019-04-30T05:11:48.897Z,1017.01
2019-04-30T05:12:50.632Z,1016.95
2019-04-30T05:13:49.102Z,1016.96
2019-04-30T05:14:48.812Z,1016.95
2019-04-30T05:15:51.305Z,1016.97
2019-04-30T05:16:48.943Z,1017.06
2019-04-30T05:17:49.444Z,1017.05
2019-04-30T05:18:48.933Z,1017.03
2019-04-30T05:19:48.847Z,1017.00
2019-04-30T05:20:49.113Z,1016.96
2019-04-30T05:21:49.513Z,1016.97
2019-04-30T05:22:49.019Z,1016.97
2019-04-30T05:23:49.263Z,1017.02
2019-04-30T05:24:48.952Z,1016.99
2019-04-30T05:25:49.223Z,1017.02
2019-04-30T05:26:48.953Z,1017.01
2019-04-30T05:27:48.988Z,1017.01
2019-04-30T05:28:52.717Z,1017.00
2019-04-30T05:29:49.838Z,1016.96
2019-04-30T05:30:49.412Z,1016.94
2019-04-30T05:31:48.926Z,1016.94
2019-04-30T05:32:50.709Z,1017.00
2019-04-30T05:33:48.999Z,1016.94
2019-04-30T05:34:49.677Z,1017.07
2019-04-30T05:35:49.596Z,1017.06
2019-04-30T05:36:49.116Z,1017.09
2019-04-30T05:37:49.511Z,1017.11
2019-04-30T05:38:48.975Z,1017.02
2019-04-30T05:39:49.007Z,1017.15
2019-04-30T05:40:49.598Z,1017.10
2019-04-30T05:41:49.273Z,1017.06
2019-04-30T05:42:49.647Z,1017.07
2019-04-30T05:43:49.076Z,1017.15
2019-04-30T05:44:49.671Z,1017.14
2019-04-30T05:45:49.354Z,1017.07
2019-04-30T05:46:49.431Z,1017.06
2019-04-30T05:47:50.611Z,1017.10
2019-04-30T05:48:49.483Z,1017.18
2019-04-30T05:49:49.146Z,1017.21
2019-04-30T05:50:51.781Z,1017.16
2019-04-30T05:51:55.563Z,1017.14
2019-04-30T05:52:49.403Z,1017.13
2019-04-30T05:53:49.229Z,1017.14
2019-04-30T05:54:49.083Z,1017.11
2019-04-30T05:55:49.466Z,1017.15
2019-04-30T05:56:49.387Z,1017.18
2019-04-30T05:57:55.771Z,1017.11
2019-04-30T05:58:49.511Z,1017.13
2019-04-30T05:59:49.125Z,1017.11
2019-04-30T06:00:49.981Z,1017.14
2019-04-30T06:01:50.747Z,1017.28
2019-04-30T06:02:49.756Z,1017.23
2019-04-30T06:03:49.170Z,1017.25
2019-04-30T06:04:49.188Z,1017.26
2019-04-30T06:05:49.347Z,1017.28
2019-04-30T06:06:49.192Z,1017.26
2019-04-30T06:07:51.895Z,1017.35
2019-04-30T06:08:49.192Z,1017.33
2019-04-30T06:09:49.195Z,1017.33
2019-04-30T06:10:51.726Z,1017.44
2019-04-30T06:11:49.293Z,1017.42
2019-04-30T06:12:49.422Z,1017.31
2019-04-30T06:13:49.261Z,1017.27
2019-04-30T06:14:51.767Z,1017.28
2019-04-30T06:15:49.249Z,1017.27
2019-04-30T06:16:51.606Z,1017.32
2019-04-30T06:17:59.674Z,1017.52
2019-04-30T06:18:49.275Z,1017.57
2019-04-30T06:19:51.515Z,1017.48
2019-04-30T06:20:49.431Z,1017.42
2019-04-30T06:21:49.295Z,1017.46
2019-04-30T06:22:51.993Z,1017.45
2019-04-30T06:23:49.375Z,1017.40
2019-04-30T06:24:49.566Z,1017.35
2019-04-30T06:25:57.281Z,1017.26
2019-04-30T06:26:49.426Z,1017.22
2019-04-30T06:27:49.360Z,1017.26
2019-04-30T06:28:49.735Z,1017.39
2019-04-30T06:29:49.362Z,1017.47
2019-04-30T06:30:49.497Z,1017.53
2019-04-30T06:31:49.386Z,1017.49
2019-04-30T06:32:49.682Z,1017.56
2019-04-30T06:33:49.397Z,1017.49
2019-04-30T06:34:49.936Z,1017.48
2019-04-30T06:35:49.426Z,1017.54
2019-04-30T06:36:53.322Z,1017.40
2019-04-30T06:37:49.432Z,1017.35
2019-04-30T06:38:49.435Z,1017.41
2019-04-30T06:39:50.020Z,1017.45
2019-04-30T06:40:49.452Z,1017.47
2019-04-30T06:41:49.463Z,1017.42
2019-04-30T06:42:49.681Z,1017.56
2019-04-30T06:43:49.491Z,1017.63
2019-04-30T06:44:49.631Z,1017.74
2019-04-30T06:45:51.213Z,1017.70
2019-04-30T06:46:49.506Z,1017.68
2019-04-30T06:47:49.515Z,1017.45
2019-04-30T06:48:51.002Z,1017.51
2019-04-30T06:49:49.539Z,1017.50
2019-04-30T06:50:49.532Z,1017.57
2019-04-30T06:51:49.543Z,1017.50
2019-04-30T06:52:56.762Z,1017.49
2019-04-30T06:53:51.408Z,1017.57
2019-04-30T06:54:49.935Z,1017.56
2019-04-30T06:55:49.576Z,1017.62
2019-04-30T06:56:49.603Z,1017.68
2019-04-30T06:57:49.819Z,1017.67
2019-04-30T06:58:52.404Z,1017.56
2019-04-30T06:59:51.500Z,1017.57
2019-04-30T07:00:49.828Z,1017.75
2019-04-30T07:01:49.634Z,1017.70
2019-04-30T07:02:49.642Z,1017.57
2019-04-30T07:03:49.638Z,1017.63
2019-04-30T07:04:49.653Z,1017.74
2019-04-30T07:05:49.666Z,1017.59
2019-04-30T07:06:50.636Z,1017.67
2019-04-30T07:07:53.335Z,1017.71
2019-04-30T07:08:55.749Z,1018.02
2019-04-30T07:09:55.813Z,1017.93
2019-04-30T07:10:55.733Z,1018.07
2019-04-30T07:11:49.751Z,1018.00
2019-04-30T07:12:49.745Z,1017.97
2019-04-30T07:13:52.271Z,1017.91
2019-04-30T07:14:49.752Z,1017.83
2019-04-30T07:15:49.752Z,1017.85
2019-04-30T07:16:49.763Z,1017.96
2019-04-30T07:17:49.774Z,1018.08
2019-04-30T07:18:49.780Z,1017.93
2019-04-30T07:19:55.638Z,1017.91
2019-04-30T07:20:49.795Z,1017.96
2019-04-30T07:21:49.809Z,1017.94
2019-04-30T07:22:59.091Z,1017.90
2019-04-30T07:23:49.829Z,1017.93
2019-04-30T07:24:49.936Z,1018.03
2019-04-30T07:25:51.708Z,1018.04
2019-04-30T07:26:49.875Z,1018.16
2019-04-30T07:27:50.481Z,1018.08
2019-04-30T07:28:54.902Z,1018.28
2019-04-30T07:29:49.885Z,1018.33
2019-04-30T07:31:07.175Z,1018.22
2019-04-30T07:31:51.689Z,1018.36
2019-04-30T07:32:49.905Z,1018.22
2019-04-30T07:33:53.430Z,1018.11
2019-04-30T07:34:49.937Z,1018.45
2019-04-30T07:35:50.043Z,1018.70
2019-04-30T07:37:10.392Z,1018.40
2019-04-30T07:37:50.132Z,1018.89
2019-04-30T07:38:56.292Z,1018.81
2019-04-30T07:39:49.999Z,1018.50
2019-04-30T07:40:50.093Z,1018.26
2019-04-30T07:41:50.011Z,1018.44
2019-04-30T07:42:50.018Z,1018.71
2019-04-30T07:43:50.076Z,1018.37
2019-04-30T07:44:50.299Z,1018.38
2019-04-30T07:45:50.049Z,1018.29
2019-04-30T07:46:50.058Z,1018.80
2019-04-30T07:47:50.064Z,1018.88
2019-04-30T07:48:50.333Z,1019.07
2019-04-30T07:49:55.013Z,1019.50
2019-04-30T07:50:52.043Z,1019.81
2019-04-30T07:51:51.743Z,1019.83
2019-04-30T07:53:01.613Z,1020.04
2019-04-30T07:53:50.148Z,1019.45
2019-04-30T07:54:51.955Z,1018.89
2019-04-30T07:55:50.268Z,1018.65
2019-04-30T07:56:50.841Z,1018.56
2019-04-30T07:57:50.800Z,1018.67
2019-04-30T07:58:50.583Z,1018.50
2019-04-30T07:59:50.208Z,1018.42
2019-04-30T08:00:53.311Z,1018.71
2019-04-30T08:02:04.006Z,1018.38
2019-04-30T08:02:50.574Z,1018.14
2019-04-30T08:03:50.744Z,1018.32
2019-04-30T08:04:51.103Z,1018.40
2019-04-30T08:05:50.433Z,1019.22
2019-04-30T08:06:50.399Z,1021.75
2019-04-30T08:07:50.368Z,1021.96
2019-04-30T08:08:51.802Z,1022.46
2019-04-30T08:09:50.338Z,1022.48
2019-04-30T08:10:51.039Z,1022.60
2019-04-30T08:11:50.364Z,1023.24
2019-04-30T08:12:51.217Z,1023.88
2019-04-30T08:13:51.012Z,1024.26
2019-04-30T08:14:50.403Z,1024.83
2019-04-30T08:15:50.422Z,1025.57
2019-04-30T08:16:51.100Z,1025.94
2019-04-30T08:18:02.873Z,1026.36
2019-04-30T08:18:50.468Z,1027.17
2019-04-30T08:19:50.477Z,1027.94
2019-04-30T08:20:50.496Z,1029.55
2019-04-30T08:21:50.505Z,1029.08
2019-04-30T08:22:50.574Z,1028.31
2019-04-30T08:23:50.544Z,1028.45
2019-04-30T08:24:50.559Z,1029.99
2019-04-30T08:25:50.568Z,1031.27
2019-04-30T08:26:50.583Z,1032.09
2019-04-30T08:27:50.606Z,1029.16
2019-04-30T08:28:50.613Z,1030.13
2019-04-30T08:29:50.645Z,1031.79
2019-04-30T08:30:50.656Z,1031.46
2019-04-30T08:31:50.669Z,1031.30
2019-04-30T08:32:50.681Z,1032.18
2019-04-30T08:33:50.698Z,1031.95
2019-04-30T08:34:50.713Z,1032.48
2019-04-30T08:35:50.734Z,1033.65
2019-04-30T08:36:51.476Z,1033.58
2019-04-30T08:37:50.768Z,1033.79
2019-04-30T08:38:50.777Z,1033.29
2019-04-30T08:39:50.794Z,1035.26
2019-04-30T08:40:56.074Z,1036.83
2019-04-30T08:42:50.847Z,1036.53
2019-04-30T08:43:50.853Z,1036.28
2019-04-30T08:44:50.865Z,1035.95
2019-04-30T08:45:50.896Z,1034.98
2019-04-30T08:46:50.905Z,1035.15
2019-04-30T08:47:50.924Z,1034.33
2019-04-30T08:48:53.718Z,1032.86
2019-04-30T08:49:50.958Z,1033.59
2019-04-30T08:50:51.197Z,1024.41
2019-04-30T08:51:51.261Z,1026.65
2019-04-30T08:52:51.154Z,1023.70
2019-04-30T08:53:51.021Z,1033.43
2019-04-30T08:54:51.041Z,1034.94
2019-04-30T08:55:51.047Z,1032.15
2019-04-30T08:56:51.070Z,1036.26
2019-04-30T08:57:51.085Z,1036.27
2019-04-30T08:58:51.098Z,1036.12
2019-04-30T08:59:51.121Z,1037.39
2019-04-30T09:00:51.140Z,1038.23
2019-04-30T09:01:51.152Z,1035.75
2019-04-30T09:02:51.190Z,1035.77
2019-04-30T09:03:51.452Z,1037.46
2019-04-30T09:04:51.201Z,1036.41
2019-04-30T09:05:51.218Z,1036.82
2019-04-30T09:06:51.244Z,1035.98
2019-04-30T09:07:51.247Z,1036.97
2019-04-30T09:08:51.260Z,1036.80
2019-04-30T09:09:51.285Z,1036.40
2019-04-30T09:10:51.290Z,1037.18
2019-04-30T09:11:55.399Z,1037.88
2019-04-30T09:12:51.978Z,1036.52
2019-04-30T09:13:51.349Z,1035.63
2019-04-30T09:14:51.360Z,1035.43
2019-04-30T09:15:51.378Z,1034.83
2019-04-30T09:16:51.502Z,1034.89
2019-04-30T09:18:00.802Z,1034.21
2019-04-30T09:18:51.432Z,1032.66
2019-04-30T09:19:51.444Z,1032.13
2019-04-30T09:20:51.457Z,1032.01
2019-04-30T09:21:51.516Z,1031.62
2019-04-30T09:22:51.505Z,1031.24
2019-04-30T09:23:52.795Z,1032.43
2019-04-30T09:24:51.528Z,1032.25
2019-04-30T09:26:51.561Z,1032.02
2019-04-30T09:27:51.586Z,1032.18
2019-04-30T09:28:51.622Z,1032.27
2019-04-30T09:29:51.634Z,1032.22
2019-04-30T09:30:51.631Z,1032.01
2019-04-30T09:31:51.654Z,1031.47
2019-04-30T09:32:51.666Z,1031.32
2019-04-30T09:33:51.685Z,1031.07
2019-04-30T09:34:51.692Z,1031.31
2019-04-30T09:35:51.715Z,1030.97
2019-04-30T09:36:51.737Z,1030.54
2019-04-30T09:37:58.904Z,1030.13
2019-04-30T09:38:51.763Z,1029.06
2019-04-30T09:39:51.798Z,1029.28
2019-04-30T09:40:51.799Z,1029.42
2019-04-30T09:41:51.833Z,1029.03
2019-04-30T09:42:51.841Z,1028.58
2019-04-30T09:43:51.859Z,1027.91
2019-04-30T09:44:54.255Z,1027.13
2019-04-30T09:45:51.890Z,1026.76
2019-04-30T09:46:51.908Z,1026.74
2019-04-30T09:48:51.942Z,1026.14
2019-04-30T09:49:51.972Z,1025.81
2019-04-30T09:50:52.163Z,1025.29
2019-04-30T09:51:52.274Z,1024.90
2019-04-30T09:52:52.266Z,1024.58
2019-04-30T09:53:58.509Z,1024.30
2019-04-30T09:54:52.304Z,1023.97
2019-04-30T09:55:52.071Z,1023.65
2019-04-30T09:56:52.754Z,1023.44
2019-04-30T09:57:52.095Z,1023.56
2019-04-30T09:58:52.114Z,1023.60
2019-04-30T09:59:52.165Z,1023.69
2019-04-30T10:00:52.198Z,1023.51
2019-04-30T10:01:52.165Z,1023.12
2019-04-30T10:02:52.188Z,1022.87
2019-04-30T10:03:52.593Z,1023.22
2019-04-30T10:04:52.699Z,1023.48
2019-04-30T10:05:52.236Z,1023.91
2019-04-30T10:06:52.247Z,1024.14
2019-04-30T10:07:52.322Z,1024.16
2019-04-30T10:08:52.293Z,1024.37
2019-04-30T10:09:52.296Z,1024.50
2019-04-30T10:10:52.326Z,1024.83
2019-04-30T10:11:52.335Z,1025.31
2019-04-30T10:12:52.369Z,1025.96
2019-04-30T10:13:52.380Z,1025.78
2019-04-30T10:14:52.399Z,1025.73
2019-04-30T10:15:52.421Z,1025.69
2019-04-30T10:16:52.427Z,1026.85
2019-04-30T10:17:52.443Z,1027.17
2019-04-30T10:18:52.459Z,1026.78
2019-04-30T10:19:52.483Z,1027.15
2019-04-30T10:20:52.508Z,1027.37
2019-04-30T10:21:52.515Z,1027.54
2019-04-30T10:22:52.538Z,1028.38
2019-04-30T10:23:52.552Z,1027.90
2019-04-30T10:24:52.630Z,1028.11
2019-04-30T10:25:52.591Z,1028.46
2019-04-30T10:26:52.615Z,1028.12
2019-04-30T10:27:52.647Z,1028.44
2019-04-30T10:28:52.645Z,1028.24
2019-04-30T10:29:52.670Z,1027.76
2019-04-30T10:30:52.669Z,1027.72
2019-04-30T10:31:52.705Z,1027.67
2019-04-30T10:32:52.718Z,1027.29
2019-04-30T10:33:52.740Z,1026.75
2019-04-30T10:34:52.813Z,1025.94
2019-04-30T10:35:52.778Z,1025.77
2019-04-30T10:36:52.786Z,1025.75
2019-04-30T10:37:52.809Z,1025.18
2019-04-30T10:38:52.827Z,1024.87
2019-04-30T10:39:52.848Z,1024.72
2019-04-30T10:40:52.874Z,1024.03
2019-04-30T10:41:52.883Z,1023.65
2019-04-30T10:42:52.899Z,1023.45
2019-04-30T10:43:52.919Z,1022.80
2019-04-30T10:44:52.931Z,1022.16
2019-04-30T10:45:52.957Z,1021.77
2019-04-30T10:46:52.969Z,1021.00
2019-04-30T10:47:52.990Z,1020.52
2019-04-30T10:48:52.996Z,1020.09
2019-04-30T10:49:53.044Z,1019.99
2019-04-30T10:50:53.055Z,1019.85
2019-04-30T10:51:53.188Z,1019.81
2019-04-30T10:52:53.076Z,1018.57
2019-04-30T10:53:53.100Z,1019.14
2019-04-30T10:54:53.118Z,1018.99
2019-04-30T10:55:53.133Z,1018.90
2019-04-30T10:56:53.155Z,1018.69
2019-04-30T10:57:53.169Z,1018.55
2019-04-30T10:58:53.204Z,1018.52
2019-04-30T10:59:53.211Z,1018.41
2019-04-30T11:00:53.227Z,1018.38
2019-04-30T11:01:53.247Z,1018.33
2019-04-30T11:02:53.273Z,1018.30
2019-04-30T11:03:53.269Z,1018.23
2019-04-30T11:04:53.288Z,1018.23
2019-04-30T11:05:53.332Z,1018.20
2019-04-30T11:06:53.352Z,1018.22
2019-04-30T11:07:53.367Z,1018.18
2019-04-30T11:08:53.361Z,1018.14
2019-04-30T11:09:53.381Z,1018.07
2019-04-30T11:10:53.408Z,1018.04
2019-04-30T11:11:53.422Z,1018.04
2019-04-30T11:12:53.445Z,1018.00
2019-04-30T11:13:53.544Z,1017.98
2019-04-30T11:14:53.484Z,1017.90
2019-04-30T11:15:53.500Z,1017.88
2019-04-30T11:16:53.689Z,1017.83
2019-04-30T11:17:53.657Z,1017.69
2019-04-30T11:18:53.714Z,1017.75
2019-04-30T11:19:53.634Z,1017.62
2019-04-30T11:20:53.809Z,1017.59
2019-04-30T11:21:53.768Z,1017.59
2019-04-30T11:22:54.861Z,1017.61
2019-04-30T11:23:53.835Z,1017.56
2019-04-30T11:24:59.373Z,1017.53
2019-04-30T11:25:54.319Z,1017.45
2019-04-30T11:26:54.240Z,1017.48
2019-04-30T11:27:54.275Z,1017.40
2019-04-30T11:28:53.914Z,1017.32
2019-04-30T11:30:00.544Z,1017.46
2019-04-30T11:30:54.037Z,1017.45
2019-04-30T11:31:53.939Z,1017.46
2019-04-30T11:32:53.969Z,1017.47
2019-04-30T11:33:53.832Z,1017.50
2019-04-30T11:34:53.849Z,1017.52
2019-04-30T11:36:02.399Z,1017.43
2019-04-30T11:36:53.902Z,1017.33
2019-04-30T11:37:53.902Z,1017.33
2019-04-30T11:38:53.926Z,1017.29
2019-04-30T11:39:53.944Z,1017.26
2019-04-30T11:40:53.972Z,1017.26
2019-04-30T11:41:53.980Z,1017.20
2019-04-30T11:42:53.996Z,1017.18
2019-04-30T11:43:54.013Z,1017.17
2019-04-30T11:44:54.034Z,1017.16
2019-04-30T11:45:54.064Z,1017.11
2019-04-30T11:46:54.074Z,1017.14
2019-04-30T11:47:54.096Z,1017.10
2019-04-30T11:48:54.107Z,1017.08
2019-04-30T11:49:54.124Z,1017.04
2019-04-30T11:50:54.142Z,1017.00
2019-04-30T11:51:54.165Z,1017.00
2019-04-30T11:53:07.053Z,1017.00
2019-04-30T11:53:54.196Z,1017.01
2019-04-30T11:54:54.824Z,1017.01
2019-04-30T11:55:54.240Z,1016.97
2019-04-30T11:56:54.249Z,1016.93
2019-04-30T11:57:54.429Z,1016.93
2019-04-30T11:58:54.296Z,1016.92
2019-04-30T11:59:54.309Z,1016.90
2019-04-30T12:00:54.328Z,1016.86
2019-04-30T12:01:54.348Z,1016.86
2019-04-30T12:02:54.367Z,1016.87
2019-04-30T12:03:54.386Z,1016.83
2019-04-30T12:04:54.412Z,1016.83
2019-04-30T12:05:54.430Z,1016.81
2019-04-30T12:06:54.451Z,1016.77
2019-04-30T12:07:54.465Z,1016.78
2019-04-30T12:08:54.498Z,1016.77